sensor_id;sensor_type;location;lat;lon;timestamp;temperature;humidity
8736;DHT22;4404;49.308;12.178;2023-04-25T07:10:48;8.50;99.90
8736;DHT22;4404;49.308;12.178;2023-04-25T07:13:05;8.60;99.90
8736;DHT22;4404;49.308;12.178;2023-04-25T07:15:09;8.70;99.90
8736;DHT22;4404;49.308;12.178;2023-04-25T07:17:12;8.80;99.90
8736;DHT22;4404;49.308;12.178;2023-04-25T07:19:14;9.00;99.90
8736;DHT22;4404;49.308;12.178;2023-04-25T07:21:16;9.10;99.90
8736;DHT22;4404;49.308;12.178;2023-04-25T07:23:20;9.20;99.90
8736;DHT22;4404;49.308;12.178;2023-04-25T07:25:23;9.30;99.90
8736;DHT22;4404;49.308;12.178;2023-04-25T07:27:27;9.20;99.90
8736;DHT22;4404;49.308;12.178;2023-04-25T07:29:29;9.40;99.90
8736;DHT22;4404;49.308;12.178;2023-04-25T07:31:32;9.50;99.90
8736;DHT22;4404;49.308;12.178;2023-04-25T07:33:34;9.50;99.90
8736;DHT22;4404;49.308;12.178;2023-04-25T07:35:38;9.60;99.90
8736;DHT22;4404;49.308;12.178;2023-04-25T07:37:40;9.60;99.90
8736;DHT22;4404;49.308;12.178;2023-04-25T07:39:42;9.70;99.90
8736;DHT22;4404;49.308;12.178;2023-04-25T07:41:44;9.70;99.90
8736;DHT22;4404;49.308;12.178;2023-04-25T07:43:49;9.70;99.90
8736;DHT22;4404;49.308;12.178;2023-04-25T07:45:52;9.70;99.90
8736;DHT22;4404;49.308;12.178;2023-04-25T07:47:54;9.80;99.90
8736;DHT22;4404;49.308;12.178;2023-04-25T07:49:56;9.80;99.90
8736;DHT22;4404;49.308;12.178;2023-04-25T07:52:01;9.80;99.90
8736;DHT22;4404;49.308;12.178;2023-04-25T07:54:03;9.80;99.90
8736;DHT22;4404;49.308;12.178;2023-04-25T07:56:06;9.90;99.90
8736;DHT22;4404;49.308;12.178;2023-04-25T07:58:11;10.00;99.90
8736;DHT22;4404;49.308;12.178;2023-04-25T08:00:15;10.00;99.90
8736;DHT22;4404;49.308;12.178;2023-04-25T08:02:18;10.10;99.90
8736;DHT22;4404;49.308;12.178;2023-04-25T08:04:20;10.10;99.90
8736;DHT22;4404;49.308;12.178;2023-04-25T08:06:23;10.00;99.90
8736;DHT22;4404;49.308;12.178;2023-04-25T08:08:25;10.10;99.90
8736;DHT22;4404;49.308;12.178;2023-04-25T08:10:28;10.10;99.90
8736;DHT22;4404;49.308;12.178;2023-04-25T08:12:30;10.10;99.90
8736;DHT22;4404;49.308;12.178;2023-04-25T08:14:32;10.10;99.90
8736;DHT22;4404;49.308;12.178;2023-04-25T08:16:39;10.10;99.90
8736;DHT22;4404;49.308;12.178;2023-04-25T08:18:41;10.10;99.90
8736;DHT22;4404;49.308;12.178;2023-04-25T08:20:43;10.10;99.90
8736;DHT22;4404;49.308;12.178;2023-04-25T08:22:45;10.00;99.90
8736;DHT22;4404;49.308;12.178;2023-04-25T08:24:49;10.60;99.90
8736;DHT22;4404;49.308;12.178;2023-04-25T08:26:51;10.00;99.90
8736;DHT22;4404;49.308;12.178;2023-04-25T08:28:56;10.00;99.90
8736;DHT22;4404;49.308;12.178;2023-04-25T08:30:58;10.00;99.90
8736;DHT22;4404;49.308;12.178;2023-04-25T08:33:02;10.00;99.90
8736;DHT22;4404;49.308;12.178;2023-04-25T08:35:04;10.10;99.90
8736;DHT22;4404;49.308;12.178;2023-04-25T08:37:07;10.10;99.90
8736;DHT22;4404;49.308;12.178;2023-04-25T08:39:10;10.10;99.90
8736;DHT22;4404;49.308;12.178;2023-04-25T08:41:13;10.20;99.90
8736;DHT22;4404;49.308;12.178;2023-04-25T08:43:18;10.30;99.90
8736;DHT22;4404;49.308;12.178;2023-04-25T08:45:21;10.20;99.90
8736;DHT22;4404;49.308;12.178;2023-04-25T08:47:23;10.30;99.90
8736;DHT22;4404;49.308;12.178;2023-04-25T08:49:28;10.40;99.90
8736;DHT22;4404;49.308;12.178;2023-04-25T08:51:32;10.50;99.90
8736;DHT22;4404;49.308;12.178;2023-04-25T08:53:34;10.40;99.90
8736;DHT22;4404;49.308;12.178;2023-04-25T08:55:37;10.40;99.90
8736;DHT22;4404;49.308;12.178;2023-04-25T08:57:41;10.70;99.90
8736;DHT22;4404;49.308;12.178;2023-04-25T08:59:44;10.30;99.90
8736;DHT22;4404;49.308;12.178;2023-04-25T09:01:47;10.20;99.90
8736;DHT22;4404;49.308;12.178;2023-04-25T09:03:50;10.10;99.90
8736;DHT22;4404;49.308;12.178;2023-04-25T09:05:55;9.90;99.90
8736;DHT22;4404;49.308;12.178;2023-04-25T09:07:57;9.80;99.90
8736;DHT22;4404;49.308;12.178;2023-04-25T09:09:59;9.70;99.90
8736;DHT22;4404;49.308;12.178;2023-04-25T09:12:04;9.80;99.90
8736;DHT22;4404;49.308;12.178;2023-04-25T09:14:13;9.90;99.90
8736;DHT22;4404;49.308;12.178;2023-04-25T09:16:16;9.90;99.90
8736;DHT22;4404;49.308;12.178;2023-04-25T09:18:23;9.80;99.90
8736;DHT22;4404;49.308;12.178;2023-04-25T09:20:26;9.70;99.90
8736;DHT22;4404;49.308;12.178;2023-04-25T09:22:30;9.60;99.90
8736;DHT22;4404;49.308;12.178;2023-04-25T09:24:35;9.60;99.90
8736;DHT22;4404;49.308;12.178;2023-04-25T09:26:38;9.70;99.90
8736;DHT22;4404;49.308;12.178;2023-04-25T09:28:40;9.70;99.90
8736;DHT22;4404;49.308;12.178;2023-04-25T09:30:46;9.60;99.90
8736;DHT22;4404;49.308;12.178;2023-04-25T09:32:48;9.90;99.90
8736;DHT22;4404;49.308;12.178;2023-04-25T09:34:51;9.90;99.90
8736;DHT22;4404;49.308;12.178;2023-04-25T09:36:55;10.30;99.90
8736;DHT22;4404;49.308;12.178;2023-04-25T09:38:59;10.30;99.90
8736;DHT22;4404;49.308;12.178;2023-04-25T09:41:04;10.30;99.90
8736;DHT22;4404;49.308;12.178;2023-04-25T09:43:09;10.10;99.90
8736;DHT22;4404;49.308;12.178;2023-04-25T09:45:13;10.00;99.90
8736;DHT22;4404;49.308;12.178;2023-04-25T09:47:15;9.90;99.90
8736;DHT22;4404;49.308;12.178;2023-04-25T09:49:22;9.90;99.90
8736;DHT22;4404;49.308;12.178;2023-04-25T09:51:25;9.90;99.90
8736;DHT22;4404;49.308;12.178;2023-04-25T09:53:28;9.90;99.90
8736;DHT22;4404;49.308;12.178;2023-04-25T09:55:32;9.80;99.90
8736;DHT22;4404;49.308;12.178;2023-04-25T09:57:36;9.80;99.90
8736;DHT22;4404;49.308;12.178;2023-04-25T09:59:43;9.80;99.90
8736;DHT22;4404;49.308;12.178;2023-04-25T10:01:48;9.90;99.90
8736;DHT22;4404;49.308;12.178;2023-04-25T10:03:51;10.00;99.90
8736;DHT22;4404;49.308;12.178;2023-04-25T10:05:56;10.20;99.90
8736;DHT22;4404;49.308;12.178;2023-04-25T10:08:02;10.40;99.90
8736;DHT22;4404;49.308;12.178;2023-04-25T10:10:06;10.50;99.90
8736;DHT22;4404;49.308;12.178;2023-04-25T10:12:10;9.40;99.90
8736;DHT22;4404;49.308;12.178;2023-04-25T10:14:13;10.80;99.90
8736;DHT22;4404;49.308;12.178;2023-04-25T10:16:38;10.90;99.90
8736;DHT22;4404;49.308;12.178;2023-04-25T10:18:40;11.00;99.90
8736;DHT22;4404;49.308;12.178;2023-04-25T10:20:42;11.20;99.90
8736;DHT22;4404;49.308;12.178;2023-04-25T10:22:46;11.40;99.90
8736;DHT22;4404;49.308;12.178;2023-04-25T10:24:50;11.50;99.90
8736;DHT22;4404;49.308;12.178;2023-04-25T10:26:53;11.60;99.90
8736;DHT22;4404;49.308;12.178;2023-04-25T10:28:57;11.70;99.90
8736;DHT22;4404;49.308;12.178;2023-04-25T10:31:07;11.80;99.90
8736;DHT22;4404;49.308;12.178;2023-04-25T10:33:16;12.10;99.90
8736;DHT22;4404;49.308;12.178;2023-04-25T10:35:24;12.30;99.90
8736;DHT22;4404;49.308;12.178;2023-04-25T10:37:27;12.60;99.90
8736;DHT22;4404;49.308;12.178;2023-04-25T10:39:29;12.70;99.90
8736;DHT22;4404;49.308;12.178;2023-04-25T10:41:31;12.80;99.90
8736;DHT22;4404;49.308;12.178;2023-04-25T10:43:34;13.00;99.90
8736;DHT22;4404;49.308;12.178;2023-04-25T10:45:52;13.10;99.90
8736;DHT22;4404;49.308;12.178;2023-04-25T10:47:55;13.20;99.90
8736;DHT22;4404;49.308;12.178;2023-04-25T10:50:05;13.30;99.90
8736;DHT22;4404;49.308;12.178;2023-04-25T10:52:18;13.40;99.90
8736;DHT22;4404;49.308;12.178;2023-04-25T10:54:22;13.40;99.90
8736;DHT22;4404;49.308;12.178;2023-04-25T10:56:29;13.50;99.90
8736;DHT22;4404;49.308;12.178;2023-04-25T10:58:32;13.60;99.90
8736;DHT22;4404;49.308;12.178;2023-04-25T11:00:35;13.80;99.90
8736;DHT22;4404;49.308;12.178;2023-04-25T11:02:43;13.90;99.90
8736;DHT22;4404;49.308;12.178;2023-04-25T11:04:47;13.90;99.90
8736;DHT22;4404;49.308;12.178;2023-04-25T11:07:05;13.80;99.90
8736;DHT22;4404;49.308;12.178;2023-04-25T11:09:12;13.60;99.90
8736;DHT22;4404;49.308;12.178;2023-04-25T11:11:14;13.40;99.90
8736;DHT22;4404;49.308;12.178;2023-04-25T11:13:17;13.10;99.90
8736;DHT22;4404;49.308;12.178;2023-04-25T11:15:22;13.00;99.90
8736;DHT22;4404;49.308;12.178;2023-04-25T11:17:25;13.00;99.90
8736;DHT22;4404;49.308;12.178;2023-04-25T11:19:29;13.20;99.90
8736;DHT22;4404;49.308;12.178;2023-04-25T11:21:31;13.50;99.90
8736;DHT22;4404;49.308;12.178;2023-04-25T11:23:33;13.70;99.90
8736;DHT22;4404;49.308;12.178;2023-04-25T11:25:36;13.80;99.90
8736;DHT22;4404;49.308;12.178;2023-04-25T11:27:48;13.90;99.90
8736;DHT22;4404;49.308;12.178;2023-04-25T11:29:51;13.80;99.90
8736;DHT22;4404;49.308;12.178;2023-04-25T11:31:54;13.80;99.90
8736;DHT22;4404;49.308;12.178;2023-04-25T11:33:59;13.70;99.90
8736;DHT22;4404;49.308;12.178;2023-04-25T11:36:02;13.70;99.90
8736;DHT22;4404;49.308;12.178;2023-04-25T11:38:07;13.80;99.90
8736;DHT22;4404;49.308;12.178;2023-04-25T11:40:10;14.00;99.90
8736;DHT22;4404;49.308;12.178;2023-04-25T11:42:13;14.10;99.90
8736;DHT22;4404;49.308;12.178;2023-04-25T11:44:15;14.10;99.90
8736;DHT22;4404;49.308;12.178;2023-04-25T11:46:18;14.10;99.90
8736;DHT22;4404;49.308;12.178;2023-04-25T11:48:20;14.00;99.90
8736;DHT22;4404;49.308;12.178;2023-04-25T11:50:22;13.90;99.90
8736;DHT22;4404;49.308;12.178;2023-04-25T11:52:35;13.80;99.90
8736;DHT22;4404;49.308;12.178;2023-04-25T11:54:38;13.60;99.90
8736;DHT22;4404;49.308;12.178;2023-04-25T11:56:42;13.50;99.90
8736;DHT22;4404;49.308;12.178;2023-04-25T11:58:57;13.40;99.90
8736;DHT22;4404;49.308;12.178;2023-04-25T12:00:59;13.30;99.90
8736;DHT22;4404;49.308;12.178;2023-04-25T12:03:03;13.30;99.90
8736;DHT22;4404;49.308;12.178;2023-04-25T12:05:06;13.20;99.90
8736;DHT22;4404;49.308;12.178;2023-04-25T12:07:09;13.10;99.90
8736;DHT22;4404;49.308;12.178;2023-04-25T12:09:14;13.00;99.90
8736;DHT22;4404;49.308;12.178;2023-04-25T12:11:21;12.90;99.90
8736;DHT22;4404;49.308;12.178;2023-04-25T12:13:25;12.90;99.90
8736;DHT22;4404;49.308;12.178;2023-04-25T12:15:28;13.00;99.90
8736;DHT22;4404;49.308;12.178;2023-04-25T12:17:31;13.10;99.90
8736;DHT22;4404;49.308;12.178;2023-04-25T12:19:33;13.30;99.90
8736;DHT22;4404;49.308;12.178;2023-04-25T12:21:36;13.30;99.90
8736;DHT22;4404;49.308;12.178;2023-04-25T12:23:39;13.40;99.90
8736;DHT22;4404;49.308;12.178;2023-04-25T12:25:44;13.30;99.90
8736;DHT22;4404;49.308;12.178;2023-04-25T12:27:47;13.20;99.90
8736;DHT22;4404;49.308;12.178;2023-04-25T12:29:51;13.20;99.90
8736;DHT22;4404;49.308;12.178;2023-04-25T12:31:55;13.10;99.90
8736;DHT22;4404;49.308;12.178;2023-04-25T12:33:57;13.00;99.90
8736;DHT22;4404;49.308;12.178;2023-04-25T12:35:59;12.90;99.90
8736;DHT22;4404;49.308;12.178;2023-04-25T12:38:04;12.80;99.90
8736;DHT22;4404;49.308;12.178;2023-04-25T12:40:07;12.70;99.90
8736;DHT22;4404;49.308;12.178;2023-04-25T12:42:11;12.60;99.90
8736;DHT22;4404;49.308;12.178;2023-04-25T12:44:14;12.30;99.90
8736;DHT22;4404;49.308;12.178;2023-04-25T12:46:16;12.20;99.90
8736;DHT22;4404;49.308;12.178;2023-04-25T12:48:18;12.20;99.90
8736;DHT22;4404;49.308;12.178;2023-04-25T12:50:21;12.40;99.90
8736;DHT22;4404;49.308;12.178;2023-04-25T12:52:23;12.40;99.90
8736;DHT22;4404;49.308;12.178;2023-04-25T12:54:25;12.50;99.90
8736;DHT22;4404;49.308;12.178;2023-04-25T12:56:27;12.50;99.90
8736;DHT22;4404;49.308;12.178;2023-04-25T12:58:31;12.40;99.90
8736;DHT22;4404;49.308;12.178;2023-04-25T13:00:34;12.40;99.90
8736;DHT22;4404;49.308;12.178;2023-04-25T13:02:36;12.20;99.90
8736;DHT22;4404;49.308;12.178;2023-04-25T13:04:38;12.20;99.90
8736;DHT22;4404;49.308;12.178;2023-04-25T13:06:40;12.20;99.90
8736;DHT22;4404;49.308;12.178;2023-04-25T13:08:42;12.30;99.90
8736;DHT22;4404;49.308;12.178;2023-04-25T13:10:45;12.30;99.90
8736;DHT22;4404;49.308;12.178;2023-04-25T13:12:47;12.30;99.90
8736;DHT22;4404;49.308;12.178;2023-04-25T13:14:50;12.30;99.90
8736;DHT22;4404;49.308;12.178;2023-04-25T13:16:52;12.40;99.90
8736;DHT22;4404;49.308;12.178;2023-04-25T13:18:55;12.30;99.90
8736;DHT22;4404;49.308;12.178;2023-04-25T13:20:58;12.40;99.90
8736;DHT22;4404;49.308;12.178;2023-04-25T13:23:35;12.30;99.90
8736;DHT22;4404;49.308;12.178;2023-04-25T13:26:10;12.40;99.90
8736;DHT22;4404;49.308;12.178;2023-04-25T13:44:44;11.70;99.90
8736;DHT22;4404;49.308;12.178;2023-04-25T13:46:50;11.90;99.90
8736;DHT22;4404;49.308;12.178;2023-04-25T13:48:55;11.90;99.90
8736;DHT22;4404;49.308;12.178;2023-04-25T13:51:03;12.00;99.90
8736;DHT22;4404;49.308;12.178;2023-04-25T13:53:22;12.10;99.90
8736;DHT22;4404;49.308;12.178;2023-04-25T14:00:17;11.90;99.90
8736;DHT22;4404;49.308;12.178;2023-04-25T14:02:43;12.60;99.90
8736;DHT22;4404;49.308;12.178;2023-04-25T14:05:08;12.80;99.90
8736;DHT22;4404;49.308;12.178;2023-04-25T14:07:10;13.00;99.90
8736;DHT22;4404;49.308;12.178;2023-04-25T14:09:13;12.90;99.90
8736;DHT22;4404;49.308;12.178;2023-04-25T14:11:16;12.90;99.90
8736;DHT22;4404;49.308;12.178;2023-04-25T14:13:18;13.00;99.90
8736;DHT22;4404;49.308;12.178;2023-04-25T14:15:22;13.00;99.90
8736;DHT22;4404;49.308;12.178;2023-04-25T14:17:24;13.20;99.90
8736;DHT22;4404;49.308;12.178;2023-04-25T14:19:27;13.20;99.90
8736;DHT22;4404;49.308;12.178;2023-04-25T14:21:29;13.30;99.90
8736;DHT22;4404;49.308;12.178;2023-04-25T14:23:33;13.30;99.90
8736;DHT22;4404;49.308;12.178;2023-04-25T14:25:35;13.30;99.90
8736;DHT22;4404;49.308;12.178;2023-04-25T14:27:38;13.40;99.50
8736;DHT22;4404;49.308;12.178;2023-04-25T14:29:40;13.40;99.20
8736;DHT22;4404;49.308;12.178;2023-04-25T14:31:44;13.30;98.10
8736;DHT22;4404;49.308;12.178;2023-04-25T14:33:46;13.20;99.20
8736;DHT22;4404;49.308;12.178;2023-04-25T14:35:49;13.10;98.60
8736;DHT22;4404;49.308;12.178;2023-04-25T14:37:51;12.90;99.40
8736;DHT22;4404;49.308;12.178;2023-04-25T14:39:55;12.80;98.50
8736;DHT22;4404;49.308;12.178;2023-04-25T14:42:00;12.70;98.50
8736;DHT22;4404;49.308;12.178;2023-04-25T14:44:02;12.70;98.50
8736;DHT22;4404;49.308;12.178;2023-04-25T14:46:04;12.60;98.60
8736;DHT22;4404;49.308;12.178;2023-04-25T14:48:08;12.70;99.10
8736;DHT22;4404;49.308;12.178;2023-04-25T14:50:10;12.80;98.20
8736;DHT22;4404;49.308;12.178;2023-04-25T14:52:13;12.80;98.40
8736;DHT22;4404;49.308;12.178;2023-04-25T14:54:15;12.70;98.60
8736;DHT22;4404;49.308;12.178;2023-04-25T14:56:17;12.70;98.50
8736;DHT22;4404;49.308;12.178;2023-04-25T14:58:20;12.80;98.00
8736;DHT22;4404;49.308;12.178;2023-04-25T15:00:22;12.90;98.30
8736;DHT22;4404;49.308;12.178;2023-04-25T15:02:27;12.90;96.90
8736;DHT22;4404;49.308;12.178;2023-04-25T15:04:31;12.90;97.70
8736;DHT22;4404;49.308;12.178;2023-04-25T15:06:33;12.70;97.40
8736;DHT22;4404;49.308;12.178;2023-04-25T15:08:36;12.70;97.90
8736;DHT22;4404;49.308;12.178;2023-04-25T15:10:38;12.60;98.90
8736;DHT22;4404;49.308;12.178;2023-04-25T15:12:40;12.50;98.80
8736;DHT22;4404;49.308;12.178;2023-04-25T15:14:42;12.60;98.10
8736;DHT22;4404;49.308;12.178;2023-04-25T15:16:45;12.40;97.70
8736;DHT22;4404;49.308;12.178;2023-04-25T15:18:47;12.50;98.60
8736;DHT22;4404;49.308;12.178;2023-04-25T15:20:51;12.50;98.10
8736;DHT22;4404;49.308;12.178;2023-04-25T15:22:54;12.50;98.30
8736;DHT22;4404;49.308;12.178;2023-04-25T15:24:56;12.50;98.40
8736;DHT22;4404;49.308;12.178;2023-04-25T15:26:58;12.50;97.90
8736;DHT22;4404;49.308;12.178;2023-04-25T15:29:01;12.50;98.30
8736;DHT22;4404;49.308;12.178;2023-04-25T15:31:04;12.50;98.10
8736;DHT22;4404;49.308;12.178;2023-04-25T15:33:06;12.40;99.00
8736;DHT22;4404;49.308;12.178;2023-04-25T15:35:09;12.30;99.70
8736;DHT22;4404;49.308;12.178;2023-04-25T15:37:13;12.20;99.30
8736;DHT22;4404;49.308;12.178;2023-04-25T15:39:16;12.10;99.60
8736;DHT22;4404;49.308;12.178;2023-04-25T15:41:18;12.20;99.60
8736;DHT22;4404;49.308;12.178;2023-04-25T15:43:20;12.20;98.60
8736;DHT22;4404;49.308;12.178;2023-04-25T15:45:24;12.20;98.10
8736;DHT22;4404;49.308;12.178;2023-04-25T15:47:26;12.20;98.20
8736;DHT22;4404;49.308;12.178;2023-04-25T15:49:29;12.10;99.10
8736;DHT22;4404;49.308;12.178;2023-04-25T15:51:32;12.10;99.60
8736;DHT22;4404;49.308;12.178;2023-04-25T15:53:36;12.10;98.50
8736;DHT22;4404;49.308;12.178;2023-04-25T15:58:49;13.60;99.90
8736;DHT22;4404;49.308;12.178;2023-04-25T16:34:09;10.80;99.90
8736;DHT22;4404;49.308;12.178;2023-04-25T16:36:29;11.20;99.90
8736;DHT22;4404;49.308;12.178;2023-04-25T16:41:54;11.30;99.90
8736;DHT22;4404;49.308;12.178;2023-04-25T16:43:57;11.00;99.90
8736;DHT22;4404;49.308;12.178;2023-04-25T16:46:20;11.00;99.90
8736;DHT22;4404;49.308;12.178;2023-04-25T16:48:39;11.30;99.90
8736;DHT22;4404;49.308;12.178;2023-04-25T16:53:41;10.50;99.90
8736;DHT22;4404;49.308;12.178;2023-04-25T16:55:43;10.70;99.90
8736;DHT22;4404;49.308;12.178;2023-04-25T17:04:29;10.30;99.90
8736;DHT22;4404;49.308;12.178;2023-04-25T17:10:19;10.70;99.90
8736;DHT22;4404;49.308;12.178;2023-04-25T17:12:22;10.50;99.90
8736;DHT22;4404;49.308;12.178;2023-04-25T17:14:27;10.50;99.90
8736;DHT22;4404;49.308;12.178;2023-04-25T17:19:33;10.40;99.90
8736;DHT22;4404;49.308;12.178;2023-04-25T17:21:57;10.20;99.90
8736;DHT22;4404;49.308;12.178;2023-04-25T17:23:59;10.20;99.90
8736;DHT22;4404;49.308;12.178;2023-04-25T17:39:45;10.00;99.90
8736;DHT22;4404;49.308;12.178;2023-04-25T17:45:33;10.30;99.90
8736;DHT22;4404;49.308;12.178;2023-04-25T17:47:39;10.00;99.90
8736;DHT22;4404;49.308;12.178;2023-04-25T17:56:28;10.10;99.90
